Latest Weather Observations for Tasman Island

IDT60801

Issued at 8:02 am EDT Sunday 26 January 2020 (issued every 10 minutes, with the page automatically refreshed every 10 minutes)

About weather observations | Map of weather stations | Latest weather observations for TAS | Other Formats
Station Details ID: 094155 Name: TASMAN ISLAND Lat: -43.24 Lon: 148.00 Height: 240.0 m
Data from the previous 72 hours. | See also: Recent months at Tasman Island
Date/Time
EDT
Temp
°C
App
Temp
°C
Dew
Point
°C
Rel
Hum
%
Delta-T
°C
Wind Press
QNH
hPa
Press
MSL
hPa
Rain since
9am
mm
Dir  Spd
km/h
Gust
km/h
Spd
kts
Gust
kts
26/08:00am 15.5 14.5 13.5 88 1.1 WSW 11 17 6 9 1007.3 1006.9 0.0
26/07:30am 15.2 14.3 13.7 91 0.9 WSW 11 17 6 9 1007.1 1006.7 0.0
26/07:00am 15.1 14.3 14.1 94 0.6 W 11 19 6 10 1007.1 1006.7 0.0
26/06:30am 15.9 15.3 13.6 86 1.3 WNW 9 19 5 10 1006.8 1006.4 0.0
26/06:00am 15.8 14.9 13.6 87 1.3 NW 11 17 6 9 1006.4 1006.0 0.0
26/05:30am 15.5 14.5 13.3 87 1.2 NNW 11 17 6 9 1006.3 1005.9 0.0
26/05:00am 15.9 14.1 13.4 85 1.4 NNW 15 30 8 16 1006.3 1005.9 0.0
26/04:30am 15.8 13.4 13.8 88 1.1 N 19 30 10 16 1006.1 1005.7 0.0
26/04:00am 15.8 13.3 13.6 87 1.3 N 19 32 10 17 1006.2 1005.8 0.0
26/03:30am 15.6 13.5 13.6 88 1.1 N 17 26 9 14 1006.5 1006.1 0.0
26/03:00am 15.4 13.4 13.8 90 0.9 N 17 28 9 15 1006.7 1006.3 0.0
26/02:30am 15.1 14.9 13.5 90 0.9 NNE 7 17 4 9 1007.0 1006.6 0.0
26/02:00am 15.5 16.0 13.9 90 0.9 SSE 4 11 2 6 1007.4 1007.0 0.0
26/01:30am 17.4 14.9 13.5 78 2.2 NNW 19 26 10 14 1007.5 1007.2 0.0
26/01:00am 17.6 15.0 13.3 76 2.5 NNW 19 30 10 16 1007.7 1007.4 0.0
26/12:30am 17.8 15.0 13.3 75 2.6 NNW 20 30 11 16 1007.8 1007.5 0.0
26/12:00am 17.9 15.0 12.8 72 2.9 NNW 20 28 11 15 1007.9 1007.6 0.0
 
Date/Time
EDT
Temp
°C
App
Temp
°C
Dew
Point
°C
Rel
Hum
%
Delta-T
°C
Wind Press
QNH
hPa
Press
MSL
hPa
Rain since
9am
mm
Dir  Spd
km/h
Gust
km/h
Spd
kts
Gust
kts
25/11:30pm 18.0 15.6 12.7 71 3.0 NNW 17 24 9 13 1008.2 1007.9 0.0
25/11:00pm 16.7 15.4 13.6 82 1.8 NNW 13 22 7 12 1008.5 1008.2 0.0
25/10:30pm 15.7 15.0 13.2 85 1.4 NW 9 15 5 8 1008.7 1008.4 0.0
25/10:00pm 16.4 15.9 12.6 78 2.1 WNW 7 13 4 7 1008.7 1008.4 0.0
25/09:30pm 16.3 15.8 12.5 78 2.1 WNW 7 9 4 5 1008.5 1008.2 0.0
25/09:00pm 16.5 15.4 12.1 75 2.4 WNW 9 9 5 5 1008.2 1007.9 0.0
25/08:30pm 17.8 17.0 11.8 68 3.3 NNW 7 9 4 5 1008.1 1007.8 0.0
25/08:00pm 18.1 17.9 11.7 66 3.6 NNW 4 6 2 3 1007.8 1007.5 0.0
25/07:30pm 17.5 17.0 12.2 71 3.0 NNE 6 11 3 6 1007.6 1007.3 0.0
25/07:00pm 17.4 16.3 12.1 71 3.0 NNE 9 13 5 7 1007.5 1007.2 0.0
25/06:30pm 17.5 17.2 12.6 73 2.8 N 6 11 3 6 1007.9 1007.6 0.0
25/06:00pm 17.2 15.5 12.3 73 2.7 NNE 13 24 7 13 1007.8 1007.5 0.0
25/05:30pm 17.5 14.9 12.0 70 3.1 NNE 17 24 9 13 1008.0 1007.7 0.0
25/05:00pm 17.0 14.6 11.5 70 3.0 NNE 15 24 8 13 1008.2 1007.9 0.0
25/04:30pm 16.7 13.3 11.4 71 2.9 NNE 20 28 11 15 1008.1 1007.8 0.0
25/04:00pm 17.5 14.4 11.5 68 3.3 NNE 19 30 10 16 1008.1 1007.8 0.0
25/03:30pm 18.2 14.2 10.6 61 4.1 NNE 22 33 12 18 1008.1 1007.8 0.0
25/03:00pm 19.1 15.4 9.6 54 5.1 NNE 19 26 10 14 1008.3 1008.0 0.0
25/02:30pm 18.0 15.1 9.6 58 4.5 N 15 26 8 14 1008.3 1008.0 0.0
25/02:00pm 20.3 18.1 9.2 49 6.0 NW 11 24 6 13 1008.4 1008.1 0.0
25/01:30pm 20.1 18.3 9.4 50 5.7 WNW 9 17 5 9 1008.4 1008.1 0.0
25/01:00pm 20.7 18.8 9.0 47 6.3 W 9 17 5 9 1008.7 1008.4 0.0
25/12:30pm 20.4 16.5 8.7 47 6.2 NW 19 26 10 14 1008.6 1008.3 0.0
25/12:00pm 20.4 16.4 9.0 48 6.1 WNW 20 30 11 16 1008.8 1008.5 0.0
25/11:30am 18.7 13.7 8.1 50 5.5 WNW 24 37 13 20 1008.7 1008.4 0.0
25/11:00am 18.8 16.3 8.2 50 5.5 WNW 11 19 6 10 1008.7 1008.4 0.0
25/10:30am 18.4 15.2 8.4 52 5.2 WNW 15 24 8 13 1008.7 1008.4 0.0
25/10:00am 17.4 15.0 8.5 56 4.6 NW 11 17 6 9 1008.7 1008.4 0.0
25/09:30am 16.9 14.0 8.1 56 4.5 NW 13 20 7 11 1008.7 1008.4 0.0
25/09:00am 15.5 10.6 7.0 57 4.2 NW 22 35 12 19 1008.7 1008.4 0.0
25/08:30am 15.5 10.6 7.0 57 4.2 WNW 22 35 12 19 1008.4 1008.1 0.0
25/08:00am 15.4 9.0 6.9 57 4.2 NW 30 41 16 22 1008.1 1007.8 0.0
25/07:30am 15.1 9.4 6.9 58 4.1 NW 26 35 14 19 1007.6 1007.3 0.0
25/07:00am 14.9 8.9 7.0 59 3.9 NW 28 43 15 23 1007.4 1007.0 0.0
25/06:30am 13.9 8.7 7.2 64 3.3 NNW 24 35 13 19 1007.2 1006.8 0.0
25/06:00am 13.9 8.4 7.7 66 3.1 NNW 26 35 14 19 1007.0 1006.6 0.0
25/05:30am 14.1 8.4 6.9 62 3.5 NW 26 37 14 20 1007.0 1006.6 0.0
25/05:00am 14.2 8.9 6.6 60 3.7 NW 24 32 13 17 1006.8 1006.4 0.0
25/04:30am 14.3 9.7 6.6 60 3.8 NW 20 37 11 20 1006.8 1006.4 0.0
25/04:00am 14.5 9.6 7.1 61 3.7 NW 22 32 12 17 1006.7 1006.3 0.0
25/03:30am 14.6 10.7 7.2 61 3.7 NW 17 22 9 12 1006.8 1006.4 0.0
25/03:00am 14.5 10.1 7.3 62 3.6 NW 20 33 11 18 1006.7 1006.3 0.0
25/02:30am 14.7 10.9 7.5 62 3.6 WNW 17 24 9 13 1006.7 1006.3 0.0
25/02:00am 15.1 9.7 8.1 63 3.6 WNW 26 33 14 18 1006.4 1006.0 0.0
25/01:30am 15.1 12.0 8.8 66 3.2 NW 15 20 8 11 1006.5 1006.1 0.0
25/01:00am 15.1 12.6 8.3 64 3.5 WNW 11 19 6 10 1006.5 1006.1 0.0
25/12:30am 14.8 12.3 8.1 64 3.4 NW 11 17 6 9 1006.7 1006.3 0.0
25/12:00am 15.5 12.2 8.0 61 3.8 WNW 15 22 8 12 1006.5 1006.1 0.0
 
Date/Time
EDT
Temp
°C
App
Temp
°C
Dew
Point
°C
Rel
Hum
%
Delta-T
°C
Wind Press
QNH
hPa
Press
MSL
hPa
Rain since
9am
mm
Dir  Spd
km/h
Gust
km/h
Spd
kts
Gust
kts
24/11:30pm 15.4 12.4 7.9 61 3.8 WNW 13 20 7 11 1006.6 1006.2 0.0
24/11:00pm 15.8 11.6 8.1 60 3.9 WNW 20 33 11 18 1006.4 1006.0 0.0
24/10:30pm 15.8 14.1 7.6 58 4.1 WNW 6 13 3 7 1006.5 1006.1 0.0
24/10:00pm 16.1 13.0 7.3 56 4.4 NW 13 20 7 11 1006.6 1006.2 0.0
24/09:30pm 16.2 13.0 6.9 54 4.6 NW 13 19 7 10 1006.2 1005.8 0.0
24/09:00pm 16.2 12.4 7.4 56 4.5 NW 17 22 9 12 1005.6 1005.3 0.0
24/08:30pm 16.5 13.0 7.4 55 4.6 WNW 15 30 8 16 1005.3 1005.0 0.0
24/08:00pm 16.7 13.1 6.8 52 5.0 W 15 39 8 21 1005.0 1004.7 0.0
24/07:30pm 17.0 12.6 7.6 54 4.8 WNW 20 32 11 17 1004.8 1004.5 0.0
24/07:00pm 17.6 15.5 8.2 54 4.9 WSW 9 20 5 11 1004.8 1004.5 0.0
24/06:30pm 16.5 14.3 8.0 57 4.3 E 9 24 5 13 1004.0 1003.7 0.0
24/06:00pm 17.1 10.4 7.2 52 5.0 WNW 32 56 17 30 1003.4 1003.0 0.0
24/05:54pm 16.7 10.8 7.4 54 4.7 WNW 28 52 15 28 1003.4 1003.0 0.0
24/05:30pm 17.0 12.0 7.9 55 4.7 WNW 24 41 13 22 1003.6 1003.2 0.0
24/05:04pm 16.5 10.5 6.9 53 4.8 WNW 28 50 15 27 1003.4 1003.0 0.0
24/05:00pm 16.4 9.6 7.1 54 4.7 WNW 32 46 17 25 1003.4 1003.0 0.0
24/04:30pm 16.4 9.2 6.0 50 5.1 NW 33 52 18 28 1003.1 1002.7 0.0
24/04:25pm 16.4 9.4 6.0 50 5.1 WNW 32 50 17 27 1003.1 1002.7 0.0
24/04:17pm 16.4 10.1 5.7 49 5.2 NW 28 43 15 23 1003.3 1002.9 0.0
24/04:00pm 16.1 13.6 6.5 53 4.8 W 9 20 5 11 1003.2 1002.8 0.0
24/03:30pm 17.1 12.8 5.4 46 5.7 NW 17 37 9 20 1003.0 1002.6 0.0
24/03:00pm 17.1 14.4 7.2 52 5.0 WNW 11 30 6 16 1002.9 1002.5 0.0
24/02:30pm 16.8 14.3 8.2 57 4.4 WNW 11 30 6 16 1002.5 1002.1 0.0
24/02:00pm 14.8 12.2 7.6 62 3.6 WSW 11 32 6 17 1002.3 1001.9 0.0
24/01:30pm 15.4 13.0 6.9 57 4.2 NW 9 35 5 19 1001.9 1001.5 0.0
24/01:00pm 15.7 12.8 8.2 61 3.9 SW 13 32 7 17 1001.2 1000.9 0.0
24/12:30pm 16.3 12.5 7.5 56 4.5 W 17 46 9 25 1000.9 1000.6 0.0
24/12:01pm 14.8 8.6 6.1 56 4.2 NW 28 52 15 28 1000.7 1000.4 0.0
24/12:00pm 14.8 9.0 6.4 57 4.1 NW 26 52 14 28 1000.7 1000.4 0.0
24/11:30am 14.1 7.4 5.5 56 4.1 NW 30 56 16 30 1000.5 1000.2 0.0
24/11:29am 14.1 7.9 6.0 58 3.9 NW 28 56 15 30 1000.5 1000.2 0.0
24/11:00am 13.9 8.3 7.0 63 3.4 NW 26 41 14 22 1000.6 1000.3 0.0
24/10:30am 14.0 6.4 5.9 58 3.9 WNW 35 56 19 30 1000.2 999.8 0.0
24/10:04am 14.8 6.9 6.4 57 4.1 NW 37 57 20 31 999.8 999.4 0.0
24/10:00am 14.4 6.1 6.3 58 4.0 NW 39 57 21 31 999.7 999.3 0.0
24/09:30am 14.6 6.4 6.4 58 4.0 WNW 39 57 21 31 999.3 998.9 0.0
24/09:12am 14.6 7.8 6.9 60 3.8 NW 32 50 17 27 999.0 998.6 0.0
24/09:00am 14.2 6.3 6.1 58 4.0 NW 37 52 20 28 998.6 998.2 9.2
24/08:30am 13.1 5.1 5.8 61 3.5 NW 37 57 20 31 998.5 998.1 9.2
24/08:25am 13.1 6.0 5.5 60 3.6 NW 32 50 17 27 998.4 998.0 9.2
24/08:00am 12.4 4.1 6.0 65 3.1 NW 39 56 21 30 998.1 997.7 9.2
24/07:30am 11.9 4.7 5.8 66 2.9 NW 33 52 18 28 997.7 997.3 9.2
24/07:00am 11.8 4.1 5.2 64 3.1 NW 35 46 19 25 997.4 997.0 9.2
24/06:39am 11.4 2.8 4.8 64 3.0 NW 39 57 21 31 997.3 996.9 9.2
24/06:30am 11.2 3.0 4.9 65 2.9 NW 37 54 20 29 997.2 996.8 9.2
24/06:00am 11.2 1.3 4.7 64 3.0 NW 46 67 25 36 996.6 996.2 9.2
24/05:34am 11.0 2.1 4.9 66 2.8 NW 41 61 22 33 996.4 996.0 9.2
24/05:30am 11.0 1.6 4.7 65 2.9 NW 43 59 23 32 996.3 995.9 9.2
24/05:00am 10.4 3.1 4.5 67 2.7 NW 32 50 17 27 996.6 996.2 9.2
24/04:39am 10.4 3.5 4.5 67 2.7 NW 30 48 16 26 996.5 996.1 9.2
24/04:30am 10.5 2.6 4.4 66 2.8 NW 35 48 19 26 996.5 996.1 9.2
24/04:00am 10.3 3.3 4.0 65 2.9 NW 30 43 16 23 996.4 996.0 9.2
24/03:30am 10.7 3.1 3.7 62 3.1 NW 33 44 18 24 996.2 995.8 9.2
24/03:00am 10.9 2.5 3.7 61 3.3 WNW 37 52 20 28 996.0 995.6 9.2
24/02:30am 11.3 3.7 4.1 61 3.3 WNW 33 52 18 28 995.8 995.4 9.2
24/02:00am 11.4 4.0 4.2 61 3.3 WNW 32 57 17 31 995.6 995.2 9.2
24/01:30am 11.5 4.3 4.9 64 3.0 WNW 32 56 17 30 995.6 995.2 9.2
24/01:18am 11.7 5.2 4.9 63 3.1 WNW 28 52 15 28 995.6 995.2 9.2
24/01:00am 11.8 7.4 5.0 63 3.2 WNW 17 48 9 26 995.5 995.1 9.2
24/12:30am 11.9 8.0 5.3 64 3.1 WNW 15 41 8 22 995.0 994.6 9.2
24/12:00am 12.1 5.0 5.3 63 3.2 NW 32 72 17 39 994.0 993.6 9.2
 
Date/Time
EDT
Temp
°C
App
Temp
°C
Dew
Point
°C
Rel
Hum
%
Delta-T
°C
Wind Press
QNH
hPa
Press
MSL
hPa
Rain since
9am
mm
Dir  Spd
km/h
Gust
km/h
Spd
kts
Gust
kts
23/11:30pm 12.3 3.9 5.7 64 3.1 WNW 39 82 21 44 993.4 993.0 9.2
23/11:00pm 12.3 1.8 5.5 63 3.2 WNW 50 80 27 43 993.2 992.7 9.2
23/10:30pm 12.4 2.2 5.1 61 3.4 WNW 48 69 26 37 992.9 992.4 9.2
23/10:00pm 12.8 3.9 5.2 60 3.6 WNW 41 59 22 32 992.2 991.8 9.2
23/09:31pm 13.0 5.0 5.7 61 3.5 WNW 37 57 20 31 992.0 991.6 9.2
23/09:30pm 13.1 4.7 5.5 60 3.6 WNW 39 57 21 31 992.0 991.6 9.2
23/09:00pm 13.6 4.7 6.7 63 3.4 WNW 43 65 23 35 991.4 991.0 9.2
23/08:30pm 13.9 4.7 6.3 60 3.7 NW 44 65 24 35 990.7 990.3 9.2
23/08:19pm 13.9 6.9 6.7 62 3.5 WNW 33 54 18 29 990.6 990.2 9.2
23/08:00pm 13.6 10.7 9.5 76 2.1 NW 15 39 8 21 990.5 990.1 9.2
23/07:30pm 12.9 11.0 10.6 86 1.2 WNW 11 20 6 11 989.9 989.5 9.2
23/07:00pm 13.1 12.2 11.3 89 1.0 W 7 20 4 11 989.2 988.7 9.2
23/06:30pm 13.5 9.6 10.9 84 1.4 WNW 22 54 12 29 988.8 988.3 9.2
23/06:29pm 13.6 8.9 10.8 83 1.5 WNW 26 54 14 29 988.9 988.4 9.2
23/06:00pm 13.7 5.7 10.5 81 1.7 NW 43 61 23 33 988.0 987.6 9.2
23/05:51pm 13.7 7.8 11.2 85 1.3 NNW 33 61 18 33 987.8 987.4 9.2
23/05:47pm 13.3 9.0 12.0 92 0.7 N 26 52 14 28 988.0 987.6 9.2
23/05:30pm 13.5 11.7 10.9 84 1.4 NNE 11 28 6 15 987.9 987.5 5.8
23/05:00pm 15.1 12.0 11.7 80 1.9 NNE 19 32 10 17 988.4 987.9 5.6
23/04:30pm 14.2 12.0 13.2 94 0.6 NNE 17 24 9 13 989.1 988.6 5.6
23/04:00pm 13.7 10.6 13.4 98 0.2 NNE 22 30 12 16 989.3 988.8 5.6
23/03:30pm 12.4 7.7 11.9 97 0.3 N 28 41 15 22 989.8 989.4 5.2
23/03:00pm 12.8 8.3 11.5 92 0.7 N 26 35 14 19 989.8 989.4 3.8
23/02:30pm 14.5 10.2 12.0 85 1.4 N 26 35 14 19 990.1 989.7 3.6
23/02:00pm 13.4 8.2 11.6 89 1.0 N 30 41 16 22 990.1 989.7 3.6
23/01:30pm 13.4 7.7 11.8 90 0.9 N 33 43 18 23 990.5 990.1 3.6
23/01:00pm 12.6 6.9 11.8 95 0.4 N 33 43 18 23 990.7 990.3 3.6
23/12:30pm 12.2 6.2 12.0 99 0.1 N 35 46 19 25 991.1 990.7 3.6
23/12:00pm 12.0 7.7 12.0 100 0.0 N 26 39 14 21 991.3 990.9 3.6
23/11:30am 12.2 9.5 11.7 97 0.3 N 17 28 9 15 991.0 990.6 3.6
23/11:00am 12.0 9.5 11.2 95 0.4 NNW 15 22 8 12 991.2 990.8 3.2
23/10:30am 12.1 9.9 10.7 91 0.7 NNW 13 20 7 11 991.3 990.9 2.2
23/10:00am 12.3 7.5 10.2 87 1.1 NW 26 41 14 22 991.8 991.4 1.2
23/09:30am 12.1 6.9 11.6 97 0.3 WNW 30 48 16 26 991.8 991.4 0.6
23/09:00am 12.9 10.0 12.9 100 0.0 NNW 20 37 11 20 992.5 992.1 10.6
23/08:30am 13.4 9.5 13.4 100 0.0 N 26 35 14 19 992.5 992.1 9.8

Other formats

Comma delimited format used in spreadsheet applications
http://www.bom.gov.au/fwo/IDT60801/IDT60801.95986.axf

JavaScript Object Notation format (JSON) in row-major order
http://www.bom.gov.au/fwo/IDT60801/IDT60801.95986.json

Data quality

Most of these data are generated automatically and are frequently updated. Quality checks on data are not normally performed. It is possible for incorrect values to appear. Refer to information at About Latest Weather Observations and please check the disclaimer before using these data.